createdAt,value
2023-04-18T00:03:41.812Z,101046.85
2023-04-18T00:06:10.475Z,101047.35
2023-04-18T00:08:39.095Z,101043.04
2023-04-18T00:11:08.448Z,101040.54
2023-04-18T00:13:40.884Z,101035.88
2023-04-18T00:16:09.387Z,101033.37
2023-04-18T00:18:37.479Z,101035.69
2023-04-18T00:21:07.191Z,101032.29
2023-04-18T00:23:36.226Z,101029.09
2023-04-18T00:26:04.437Z,101029.98
2023-04-18T00:28:32.654Z,101028.36
2023-04-18T00:31:01.436Z,101024.42
2023-04-18T00:33:29.704Z,101025.28
2023-04-18T00:35:57.826Z,101021.36
2023-04-18T00:38:26.062Z,101021.70
2023-04-18T00:40:54.290Z,101017.59
2023-04-18T00:43:24.243Z,101018.09
2023-04-18T00:45:52.605Z,101018.61
2023-04-18T00:48:21.077Z,101018.24
2023-04-18T00:50:49.290Z,101011.83
2023-04-18T00:53:17.772Z,101011.48
2023-04-18T00:55:46.115Z,101006.09
2023-04-18T00:58:14.597Z,101002.16
2023-04-18T01:00:43.352Z,101002.16
2023-04-18T01:03:11.735Z,100999.31
2023-04-18T01:05:40.629Z,101000.19
2023-04-18T01:08:08.932Z,100999.10
2023-04-18T01:10:37.489Z,100996.79
2023-04-18T01:13:16.813Z,100991.76
2023-04-18T01:15:50.667Z,100986.90
2023-04-18T01:18:19.621Z,100983.48
2023-04-18T01:20:49.938Z,100984.17
2023-04-18T01:23:19.433Z,100985.95
2023-04-18T01:25:48.618Z,100986.46
2023-04-18T01:28:17.361Z,100984.86
2023-04-18T01:30:45.775Z,100987.52
2023-04-18T01:33:13.921Z,100985.52
2023-04-18T01:35:42.069Z,100989.39
2023-04-18T01:38:10.465Z,100988.09
2023-04-18T01:40:38.609Z,100988.04
2023-04-18T01:43:07.194Z,100989.77
2023-04-18T01:45:35.626Z,100985.82
2023-04-18T01:48:04.384Z,100987.21
2023-04-18T01:50:32.780Z,100985.77
2023-04-18T01:53:02.856Z,100987.52
2023-04-18T01:55:31.018Z,100990.36
2023-04-18T01:57:59.105Z,100983.02
2023-04-18T02:00:27.854Z,100984.77
2023-04-18T02:02:59.226Z,100984.79
2023-04-18T02:05:27.940Z,100986.20
2023-04-18T02:07:56.149Z,100987.42
2023-04-18T02:10:24.320Z,100986.13
2023-04-18T02:12:52.508Z,100987.52
2023-04-18T02:15:20.824Z,100989.83
2023-04-18T02:17:49.684Z,100992.48
2023-04-18T02:20:18.164Z,100988.90
2023-04-18T02:22:47.525Z,100989.02
2023-04-18T02:25:15.664Z,100986.35
2023-04-18T02:27:43.873Z,100983.17
2023-04-18T02:30:12.221Z,100981.73
2023-04-18T02:32:40.654Z,100980.30
2023-04-18T02:35:09.434Z,100978.29
2023-04-18T02:37:37.549Z,100975.02
2023-04-18T02:40:06.590Z,100974.84
2023-04-18T02:42:34.741Z,100973.42
2023-04-18T02:45:03.754Z,100972.17
2023-04-18T02:47:35.420Z,100972.88
2023-04-18T02:50:12.229Z,100968.59
2023-04-18T02:52:40.434Z,100969.27
2023-04-18T02:55:09.007Z,100961.95
2023-04-18T02:57:37.217Z,100961.91
2023-04-18T03:00:05.997Z,100960.27
2023-04-18T03:02:34.418Z,100961.66
2023-04-18T03:05:03.825Z,100960.39
2023-04-18T03:07:31.984Z,100961.81
2023-04-18T03:10:00.183Z,100961.58
2023-04-18T03:12:28.426Z,100962.61
2023-04-18T03:14:56.700Z,100963.30
2023-04-18T03:17:25.416Z,100960.60
2023-04-18T03:19:53.858Z,100952.08
2023-04-18T03:22:21.966Z,100955.77
2023-04-18T03:24:52.224Z,100953.11
2023-04-18T03:27:20.747Z,100953.12
2023-04-18T03:29:48.904Z,100951.33
2023-04-18T03:32:17.097Z,100950.42
2023-04-18T03:34:45.940Z,100946.85
2023-04-18T03:37:14.009Z,100941.70
2023-04-18T03:39:42.255Z,100945.07
2023-04-18T03:42:10.610Z,100946.33
2023-04-18T03:44:38.842Z,100943.11
2023-04-18T03:47:06.991Z,100944.16
2023-04-18T03:49:35.720Z,100943.63
2023-04-18T03:52:04.239Z,100943.64
2023-04-18T03:54:32.550Z,100945.42
2023-04-18T03:57:00.888Z,100947.75
2023-04-18T03:59:30.082Z,100948.13
2023-04-18T04:01:59.023Z,100947.75
2023-04-18T04:04:29.237Z,100947.58
2023-04-18T04:06:57.489Z,100947.05
2023-04-18T04:09:25.775Z,100951.26
2023-04-18T04:11:53.995Z,100952.80
2023-04-18T04:14:22.130Z,100950.27
2023-04-18T04:16:51.842Z,100949.58
2023-04-18T04:19:20.102Z,100954.52
2023-04-18T04:21:49.393Z,100956.09
2023-04-18T04:24:17.921Z,100956.90
2023-04-18T04:26:47.071Z,100954.56
2023-04-18T04:29:15.316Z,100947.97
2023-04-18T04:31:43.586Z,100951.35
2023-04-18T04:34:12.374Z,100951.84
2023-04-18T04:36:40.801Z,100951.10
2023-04-18T04:39:09.006Z,100956.39
2023-04-18T04:41:39.694Z,100953.01
2023-04-18T04:44:07.881Z,100953.66
2023-04-18T04:46:36.323Z,100953.98
2023-04-18T04:49:05.133Z,100950.42
2023-04-18T04:51:33.350Z,100952.70
2023-04-18T04:54:01.495Z,100953.20
2023-04-18T04:56:29.754Z,100952.48
2023-04-18T04:58:58.003Z,100952.64
2023-04-18T05:01:26.419Z,100955.80
2023-04-18T05:03:54.962Z,100957.56
2023-04-18T05:06:24.798Z,100960.73
2023-04-18T05:08:53.107Z,100960.66
2023-04-18T05:11:21.322Z,100958.86
2023-04-18T05:13:49.400Z,100959.70
2023-04-18T05:16:18.328Z,100961.29
2023-04-18T05:18:46.567Z,100961.06
2023-04-18T05:21:14.762Z,100962.45
2023-04-18T05:23:43.160Z,100966.91
2023-04-18T05:26:11.575Z,100962.33
2023-04-18T05:28:39.817Z,100960.73
2023-04-18T05:31:08.541Z,100960.56
2023-04-18T05:33:37.225Z,100964.27
2023-04-18T05:36:08.889Z,100964.63
2023-04-18T05:38:37.261Z,100967.48
2023-04-18T05:41:05.567Z,100968.91
2023-04-18T05:43:34.013Z,100966.11
2023-04-18T05:46:02.733Z,100970.06
2023-04-18T05:48:31.829Z,100970.61
2023-04-18T05:51:00.209Z,100970.98
2023-04-18T05:53:28.402Z,100978.04
2023-04-18T05:55:57.757Z,100978.05
2023-04-18T05:58:29.430Z,100978.96
2023-04-18T06:00:58.367Z,100979.36
2023-04-18T06:03:26.682Z,100984.37
2023-04-18T06:05:55.933Z,100982.63
2023-04-18T06:08:24.566Z,100985.17
2023-04-18T06:10:52.704Z,100987.70
2023-04-18T06:13:20.897Z,100987.58
2023-04-18T06:15:50.062Z,100991.19
2023-04-18T06:18:18.774Z,100992.52
2023-04-18T06:20:47.423Z,100992.10
2023-04-18T06:23:15.868Z,100995.91
2023-04-18T06:25:44.841Z,100996.54
2023-04-18T06:28:15.376Z,100996.50
2023-04-18T06:30:44.190Z,100998.88
2023-04-18T06:33:12.610Z,101005.30
2023-04-18T06:35:41.754Z,101005.45
2023-04-18T06:38:11.704Z,101001.58
2023-04-18T06:40:39.887Z,101007.02
2023-04-18T06:43:08.178Z,101009.59
2023-04-18T06:45:36.639Z,101007.91
2023-04-18T06:48:05.309Z,101007.14
2023-04-18T06:50:33.830Z,101007.24
2023-04-18T06:53:02.154Z,101009.83
2023-04-18T06:55:30.677Z,101007.64
2023-04-18T06:58:00.384Z,101011.85
2023-04-18T07:00:28.933Z,101010.16
2023-04-18T07:02:57.448Z,101010.07
2023-04-18T07:05:25.851Z,101010.19
2023-04-18T07:07:54.221Z,101009.02
2023-04-18T07:10:22.417Z,101003.40
2023-04-18T07:12:50.840Z,101002.38
2023-04-18T07:15:18.895Z,100997.80
2023-04-18T07:17:47.161Z,100992.67
2023-04-18T07:20:16.082Z,100990.59
2023-04-18T07:22:44.317Z,100989.36
2023-04-18T07:25:12.443Z,100990.26
2023-04-18T07:27:41.378Z,100990.95
2023-04-18T07:30:10.427Z,100991.64
2023-04-18T07:32:38.599Z,100991.42
2023-04-18T07:35:06.893Z,100987.98
2023-04-18T07:37:35.850Z,100987.36
2023-04-18T07:40:04.573Z,100986.54
2023-04-18T07:42:35.747Z,100986.61
2023-04-18T07:45:04.531Z,100983.95
2023-04-18T07:47:33.452Z,100985.45
2023-04-18T07:50:02.960Z,100988.56
2023-04-18T07:52:31.158Z,100989.66
2023-04-18T07:55:00.579Z,100990.23
2023-04-18T07:57:28.817Z,100993.02
2023-04-18T08:00:00.263Z,100990.95
2023-04-18T08:02:28.784Z,100998.59
2023-04-18T08:04:57.458Z,101000.66
2023-04-18T08:07:26.313Z,101001.42
2023-04-18T08:09:56.064Z,101002.39
2023-04-18T08:12:24.277Z,101001.66
2023-04-18T08:14:52.630Z,101003.11
2023-04-18T08:17:23.021Z,101004.12
2023-04-18T08:19:51.249Z,101005.29
2023-04-18T08:22:19.593Z,101002.95
2023-04-18T08:25:03.355Z,101008.11
2023-04-18T08:27:36.511Z,101013.97
2023-04-18T08:30:08.126Z,101014.02
2023-04-18T08:32:39.036Z,101012.41
2023-04-18T08:35:07.583Z,101014.61
2023-04-18T08:37:39.445Z,101016.76
2023-04-18T08:40:08.816Z,101021.86
2023-04-18T08:42:37.203Z,101022.19
2023-04-18T08:45:07.057Z,101018.09
2023-04-18T08:47:36.697Z,101022.73
2023-04-18T08:50:12.154Z,101023.30
2023-04-18T08:52:46.145Z,101018.73
2023-04-18T08:55:14.771Z,101018.77
2023-04-18T08:57:44.979Z,101021.13
2023-04-18T09:00:20.459Z,101021.75
2023-04-18T09:02:49.251Z,101022.92
2023-04-18T09:05:25.167Z,101022.87
2023-04-18T09:07:55.921Z,101026.62
2023-04-18T09:10:35.364Z,101026.73
2023-04-18T09:13:04.281Z,101030.95
2023-04-18T09:15:33.286Z,101033.45
2023-04-18T09:18:01.949Z,101035.41
2023-04-18T09:20:31.767Z,101042.41
2023-04-18T09:23:02.328Z,101040.30
2023-04-18T09:25:38.400Z,101039.70
2023-04-18T09:28:30.731Z,101041.96
2023-04-18T09:31:12.246Z,101040.73
2023-04-18T09:33:53.193Z,101040.37
2023-04-18T09:36:28.100Z,101037.77
2023-04-18T09:39:03.591Z,101041.56
2023-04-18T09:41:33.144Z,101039.73
2023-04-18T09:44:13.934Z,101043.69
2023-04-18T09:46:46.593Z,101041.16
2023-04-18T09:49:18.722Z,101041.46
2023-04-18T09:51:52.052Z,101038.79
2023-04-18T09:54:24.352Z,101040.90
2023-04-18T09:56:53.435Z,101038.92
2023-04-18T10:00:08.869Z,101038.92
2023-04-18T10:02:57.868Z,101042.10
2023-04-18T10:05:32.157Z,101042.95
2023-04-18T10:08:13.602Z,101042.54
2023-04-18T10:10:42.341Z,101042.54
2023-04-18T10:13:14.097Z,101041.86
2023-04-18T10:15:44.476Z,101044.69
2023-04-18T10:18:16.540Z,101047.90
2023-04-18T10:20:47.254Z,101039.67
2023-04-18T10:23:39.293Z,101039.58
2023-04-18T10:26:09.913Z,101043.68
2023-04-18T10:28:56.471Z,101044.02
2023-04-18T10:31:28.205Z,101042.80
2023-04-18T10:36:31.338Z,101040.52
2023-04-18T10:39:19.877Z,101039.36
2023-04-18T10:41:51.186Z,101039.27
2023-04-18T10:44:22.342Z,101039.92
2023-04-18T10:46:59.987Z,101039.88
2023-04-18T10:49:32.613Z,101039.28
2023-04-18T10:52:04.035Z,101036.42
2023-04-18T10:54:48.051Z,101033.16
2023-04-18T10:57:19.260Z,101031.09
2023-04-18T10:59:53.865Z,101031.41
2023-04-18T11:02:31.774Z,101031.20
2023-04-18T11:05:03.534Z,101027.30
2023-04-18T11:07:43.458Z,101017.60
2023-04-18T11:10:13.417Z,101017.98
2023-04-18T11:12:42.248Z,101020.29
2023-04-18T11:15:20.398Z,101021.98
2023-04-18T11:18:00.535Z,101023.16
2023-04-18T11:20:37.489Z,101017.48
2023-04-18T11:23:16.995Z,101017.64
2023-04-18T11:25:45.603Z,101018.22
2023-04-18T11:28:19.520Z,101019.73
2023-04-18T11:30:49.194Z,101022.74
2023-04-18T11:33:18.475Z,101020.27
2023-04-18T11:35:47.082Z,101022.11
2023-04-18T11:38:16.887Z,101016.47
2023-04-18T11:40:49.808Z,101017.60
2023-04-18T11:43:26.353Z,101018.48
2023-04-18T11:45:56.594Z,101017.02
2023-04-18T11:48:37.996Z,101021.80
2023-04-18T11:51:08.672Z,101018.40
2023-04-18T11:53:38.905Z,101019.77
2023-04-18T11:56:08.074Z,101018.84
2023-04-18T11:58:36.930Z,101014.39
2023-04-18T12:01:20.251Z,101013.65
2023-04-18T12:04:03.955Z,101008.55
2023-04-18T12:06:53.995Z,101003.63
2023-04-18T12:09:24.716Z,101006.83
2023-04-18T12:12:02.207Z,101003.75
2023-04-18T12:14:30.934Z,100999.39
2023-04-18T12:17:03.155Z,100997.54
2023-04-18T12:19:33.046Z,100997.80
2023-04-18T12:22:03.424Z,100995.90
2023-04-18T12:24:32.889Z,100994.29
2023-04-18T12:27:02.287Z,100993.14
2023-04-18T12:29:32.343Z,100992.59
2023-04-18T12:32:01.868Z,100995.69
2023-04-18T12:34:31.760Z,100998.23
2023-04-18T12:37:00.894Z,100996.55
2023-04-18T12:39:32.559Z,100996.10
2023-04-18T12:42:00.792Z,100995.86
2023-04-18T12:44:30.167Z,100993.55
2023-04-18T12:47:00.078Z,100994.71
2023-04-18T12:49:28.430Z,100993.91
2023-04-18T12:51:56.706Z,100992.00
2023-04-18T12:54:26.125Z,100991.77
2023-04-18T12:56:55.057Z,100993.94
2023-04-18T12:59:23.324Z,100988.98
2023-04-18T13:01:52.667Z,100990.27
2023-04-18T13:04:21.641Z,100995.73
2023-04-18T13:06:50.644Z,100991.22
2023-04-18T13:09:19.833Z,100989.85
2023-04-18T13:11:49.684Z,100993.94
2023-04-18T13:14:18.654Z,100987.04
2023-04-18T13:16:46.966Z,100990.30
2023-04-18T13:19:15.385Z,100992.10
2023-04-18T13:21:44.583Z,100997.48
2023-04-18T13:24:13.312Z,100994.89
2023-04-18T13:26:42.170Z,100988.10
2023-04-18T13:29:11.654Z,100982.88
2023-04-18T13:31:40.223Z,100983.58
2023-04-18T13:34:08.591Z,100979.92
2023-04-18T13:36:37.006Z,100977.85
2023-04-18T13:39:07.143Z,100979.61
2023-04-18T13:41:36.595Z,100974.08
2023-04-18T13:44:07.122Z,100975.39
2023-04-18T13:46:38.434Z,100977.41
2023-04-18T13:49:07.566Z,100973.20
2023-04-18T13:51:37.202Z,100975.69
2023-04-18T13:54:05.697Z,100976.45
2023-04-18T13:56:34.709Z,100972.13
2023-04-18T13:59:04.081Z,100968.61
2023-04-18T14:01:33.236Z,100967.38
2023-04-18T14:04:04.206Z,100967.28
2023-04-18T14:06:32.701Z,100964.79
2023-04-18T14:09:02.225Z,100961.42
2023-04-18T14:11:31.955Z,100955.94
2023-04-18T14:14:00.186Z,100953.30
2023-04-18T14:16:30.555Z,100948.42
2023-04-18T14:19:01.832Z,100944.83
2023-04-18T14:21:30.436Z,100948.38
2023-04-18T14:23:58.718Z,100945.44
2023-04-18T14:26:28.064Z,100943.65
2023-04-18T14:28:56.883Z,100942.93
2023-04-18T14:31:25.090Z,100936.80
2023-04-18T14:33:55.150Z,100928.13
2023-04-18T14:36:25.499Z,100929.02
2023-04-18T14:38:53.751Z,100927.98
2023-04-18T14:41:21.941Z,100926.53
2023-04-18T14:43:51.423Z,100922.86
2023-04-18T14:46:21.457Z,100922.91
2023-04-18T14:48:51.566Z,100922.10
2023-04-18T14:51:20.423Z,100925.77
2023-04-18T14:53:48.705Z,100919.95
2023-04-18T14:56:17.721Z,100921.13
2023-04-18T14:58:46.977Z,100924.27
2023-04-18T15:01:15.520Z,100925.55
2023-04-18T15:03:43.753Z,100926.09
2023-04-18T15:06:12.135Z,100925.00
2023-04-18T15:08:40.827Z,100925.95
2023-04-18T15:11:10.346Z,100920.50
2023-04-18T15:13:39.186Z,100919.88
2023-04-18T15:16:08.463Z,100923.16
2023-04-18T15:18:37.742Z,100924.70
2023-04-18T15:21:07.035Z,100923.85
2023-04-18T15:23:35.584Z,100924.58
2023-04-18T15:26:04.946Z,100926.61
2023-04-18T15:28:34.027Z,100927.20
2023-04-18T15:31:03.225Z,100922.64
2023-04-18T15:33:32.258Z,100925.83
2023-04-18T15:36:01.702Z,100925.98
2023-04-18T15:38:33.032Z,100923.52
2023-04-18T15:41:01.716Z,100920.15
2023-04-18T15:43:31.376Z,100919.89
2023-04-18T15:46:00.064Z,100920.21
2023-04-18T15:48:29.692Z,100916.62
2023-04-18T15:50:57.812Z,100920.59
2023-04-18T15:53:26.277Z,100919.98
2023-04-18T15:55:54.710Z,100922.27
2023-04-18T15:58:23.294Z,100922.08
2023-04-18T16:00:53.487Z,100931.84
2023-04-18T16:03:23.079Z,100929.00
2023-04-18T16:05:51.907Z,100927.10
2023-04-18T16:08:20.402Z,100929.44
2023-04-18T16:10:48.545Z,100928.54
2023-04-18T16:13:19.396Z,100926.77
2023-04-18T16:15:47.583Z,100925.44
2023-04-18T16:18:15.807Z,100927.08
2023-04-18T16:20:44.011Z,100925.13
2023-04-18T16:23:12.253Z,100924.94
2023-04-18T16:25:41.209Z,100926.63
2023-04-18T16:28:11.972Z,100927.23
2023-04-18T16:30:40.365Z,100928.11
2023-04-18T16:33:09.361Z,100924.80
2023-04-18T16:35:38.234Z,100927.16
2023-04-18T16:38:07.702Z,100921.30
2023-04-18T16:40:36.148Z,100919.88
2023-04-18T16:43:05.443Z,100917.05
2023-04-18T16:45:35.094Z,100922.27
2023-04-18T16:48:04.422Z,100919.39
2023-04-18T16:50:32.704Z,100915.01
2023-04-18T16:53:01.440Z,100920.48
2023-04-18T16:55:30.045Z,100918.95
2023-04-18T16:57:58.754Z,100915.97
2023-04-18T17:00:28.176Z,100916.39
2023-04-18T17:02:57.176Z,100918.02
2023-04-18T17:05:25.572Z,100918.55
2023-04-18T17:07:55.278Z,100916.63
2023-04-18T17:10:24.586Z,100915.63
2023-04-18T17:12:53.530Z,100918.13
2023-04-18T17:15:23.509Z,100917.44
2023-04-18T17:17:52.900Z,100917.23
2023-04-18T17:20:21.219Z,100918.84
2023-04-18T17:22:49.521Z,100910.77
2023-04-18T17:25:18.441Z,100912.34
2023-04-18T17:27:47.144Z,100917.39
2023-04-18T17:30:15.478Z,100912.77
2023-04-18T17:32:43.974Z,100911.50
2023-04-18T17:35:13.601Z,100913.81
2023-04-18T17:37:42.400Z,100914.17
2023-04-18T17:40:11.260Z,100917.95
2023-04-18T17:42:39.899Z,100919.58
2023-04-18T17:45:10.347Z,100926.92
2023-04-18T17:47:39.324Z,100926.91
2023-04-18T17:50:08.442Z,100926.95
2023-04-18T17:52:37.587Z,100925.02
2023-04-18T17:55:06.705Z,100926.98
2023-04-18T17:57:34.941Z,100930.75
2023-04-18T18:00:03.161Z,100931.66
2023-04-18T18:02:31.843Z,100937.92
2023-04-18T18:05:01.325Z,100939.54
2023-04-18T18:07:29.492Z,100937.93
2023-04-18T18:09:58.682Z,100944.02
2023-04-18T18:12:27.402Z,100944.00
2023-04-18T18:14:55.672Z,100944.38
2023-04-18T18:17:24.502Z,100945.97
2023-04-18T18:19:53.063Z,100949.19
2023-04-18T18:22:21.412Z,100946.86
2023-04-18T18:24:51.379Z,100945.27
2023-04-18T18:27:20.207Z,100947.77
2023-04-18T18:29:48.876Z,100954.02
2023-04-18T18:32:17.413Z,100957.58
2023-04-18T18:34:45.725Z,100961.69
2023-04-18T18:37:15.114Z,100958.10
2023-04-18T18:39:43.743Z,100964.86
2023-04-18T18:42:12.119Z,100964.67
2023-04-18T18:44:40.385Z,100963.60
2023-04-18T18:47:09.112Z,100962.00
2023-04-18T18:49:37.778Z,100962.89
2023-04-18T18:52:05.975Z,100964.66
2023-04-18T18:54:34.386Z,100967.16
2023-04-18T18:57:03.800Z,100970.90
2023-04-18T18:59:31.999Z,100971.44
2023-04-18T19:02:01.059Z,100975.71
2023-04-18T19:04:30.199Z,100978.55
2023-04-18T19:06:59.187Z,100981.59
2023-04-18T19:09:28.964Z,100981.23
2023-04-18T19:11:57.819Z,100987.11
2023-04-18T19:14:27.214Z,100993.17
2023-04-18T19:16:55.994Z,100996.38
2023-04-18T19:19:25.029Z,100999.23
2023-04-18T19:21:53.325Z,101001.71
2023-04-18T19:24:21.871Z,101001.71
2023-04-18T19:26:50.102Z,101002.96
2023-04-18T19:29:18.311Z,101003.66
2023-04-18T19:31:46.574Z,101008.48
2023-04-18T19:34:14.993Z,101010.96
2023-04-18T19:36:44.269Z,101017.37
2023-04-18T19:39:13.077Z,101017.57
2023-04-18T19:41:41.822Z,101020.42
2023-04-18T19:44:10.179Z,101027.36
2023-04-18T19:46:38.634Z,101030.39
2023-04-18T19:49:07.574Z,101030.57
2023-04-18T19:51:36.590Z,101036.28
2023-04-18T19:54:05.016Z,101039.30
2023-04-18T19:56:33.186Z,101044.64
2023-04-18T19:59:01.939Z,101049.80
2023-04-18T20:01:31.249Z,101049.80
2023-04-18T20:03:59.800Z,101058.17
2023-04-18T20:06:31.674Z,101062.80
2023-04-18T20:09:00.994Z,101065.84
2023-04-18T20:11:29.561Z,101067.61
2023-04-18T20:13:58.313Z,101066.54
2023-04-18T20:16:26.682Z,101070.98
2023-04-18T20:18:56.786Z,101069.38
2023-04-18T20:21:26.159Z,101070.10
2023-04-18T20:23:54.382Z,101071.49
2023-04-18T20:26:22.477Z,101072.77
2023-04-18T20:28:51.113Z,101071.70
2023-04-18T20:31:19.374Z,101075.08
2023-04-18T20:33:48.130Z,101078.65
2023-04-18T20:36:16.932Z,101083.11
2023-04-18T20:38:45.654Z,101088.10
2023-04-18T20:41:14.910Z,101087.04
2023-04-18T20:43:43.073Z,101087.36
2023-04-18T20:46:11.303Z,101090.92
2023-04-18T20:48:41.353Z,101091.82
2023-04-18T20:51:11.224Z,101091.30
2023-04-18T20:53:39.526Z,101089.17
2023-04-18T20:56:09.852Z,101089.02
2023-04-18T20:58:38.118Z,101087.23
2023-04-18T21:01:07.647Z,101093.29
2023-04-18T21:03:36.640Z,101098.64
2023-04-18T21:06:05.582Z,101093.83
2023-04-18T21:08:34.007Z,101093.98
2023-04-18T21:11:02.201Z,101093.81
2023-04-18T21:13:32.469Z,101096.81
2023-04-18T21:16:00.945Z,101095.73
2023-04-18T21:18:29.500Z,101095.94
2023-04-18T21:20:58.482Z,101098.61
2023-04-18T21:23:26.760Z,101096.14
2023-04-18T21:25:54.895Z,101095.80
2023-04-18T21:28:24.055Z,101100.61
2023-04-18T21:30:52.275Z,101101.50
2023-04-18T21:33:20.369Z,101099.55
2023-04-18T21:35:49.304Z,101105.80
2023-04-18T21:38:17.480Z,101103.32
2023-04-18T21:40:45.549Z,101104.57
2023-04-18T21:43:14.064Z,101106.15
2023-04-18T21:45:42.325Z,101105.98
2023-04-18T21:48:10.984Z,101106.69
2023-04-18T21:50:39.244Z,101102.40
2023-04-18T21:53:07.622Z,101104.89
2023-04-18T21:55:35.798Z,101103.62
2023-04-18T21:58:04.284Z,101105.94
2023-04-18T22:00:32.411Z,101103.26
2023-04-18T22:03:00.866Z,101102.00
2023-04-18T22:05:29.878Z,101100.92
2023-04-18T22:07:58.810Z,101100.04
2023-04-18T22:10:27.240Z,101097.34
2023-04-18T22:12:55.543Z,101095.37
2023-04-18T22:15:24.739Z,101096.77
2023-04-18T22:17:53.250Z,101098.91
2023-04-18T22:20:21.660Z,101097.11
2023-04-18T22:22:50.436Z,101095.66
2023-04-18T22:25:18.579Z,101092.96
2023-04-18T22:27:46.868Z,101093.84
2023-04-18T22:30:15.439Z,101092.08
2023-04-18T22:32:43.823Z,101090.27
2023-04-18T22:35:12.575Z,101091.87
2023-04-18T22:37:40.618Z,101090.76
2023-04-18T22:40:09.221Z,101089.66
2023-04-18T22:42:38.704Z,101093.16
2023-04-18T22:45:07.605Z,101092.61
2023-04-18T22:47:35.947Z,101090.80
2023-04-18T22:50:05.078Z,101090.98
2023-04-18T22:52:34.752Z,101089.70
2023-04-18T22:55:03.501Z,101092.01
2023-04-18T22:57:33.190Z,101091.44
2023-04-18T23:00:01.423Z,101093.05
2023-04-18T23:02:30.478Z,101094.29
2023-04-18T23:04:59.377Z,101091.81
2023-04-18T23:07:27.840Z,101097.31
2023-04-18T23:09:56.479Z,101092.66
2023-04-18T23:12:25.047Z,101090.69
2023-04-18T23:14:54.249Z,101088.89
2023-04-18T23:17:22.596Z,101088.36
2023-04-18T23:19:51.722Z,101091.54
2023-04-18T23:22:20.400Z,101086.52
2023-04-18T23:24:48.774Z,101090.08
2023-04-18T23:27:17.072Z,101089.00
2023-04-18T23:29:48.032Z,101089.01
2023-04-18T23:32:16.358Z,101090.60
2023-04-18T23:34:46.162Z,101090.43
2023-04-18T23:37:14.744Z,101092.04
2023-04-18T23:39:42.847Z,101092.95
2023-04-18T23:42:11.839Z,101094.91
2023-04-18T23:44:40.049Z,101094.52
2023-04-18T23:47:08.794Z,101088.30
2023-04-18T23:49:37.092Z,101089.59
2023-04-18T23:52:05.343Z,101083.36
2023-04-18T23:54:33.927Z,101080.15
2023-04-18T23:57:02.225Z,101082.48
2023-04-18T23:59:30.434Z,101075.36
